Larry Drummond — WDG3073 — position and weather

sailwx.info

Track history (hours):
 
Tides and Currents Weather Stations Pressure Air Temp Water Temp Dewpoint Dewpoint Depression Visibility Wind Speed Wind Dir Waves Ship Positions

Larry Drummond

Owner: INGRAM BARGE COMPANY, NASHVILLE, TN. More information available from US FCC via Universal Licensing System and Coast Guard Vessel Documentation Center.

Last reported at 2015-Jun-22 19:32 UTC. Time now 2015-Jun-30 14:30 UTC.
Position N 39°07' W 084°48'.

Length 70 m; draft 9 m.

Type: Towing. MMSI: 367522210.

Date/timePositionNaut miles runAvg speedWind from/ knotsBaromVisibWave heightAir tempDewpointWater temp
2015-Jun-22 19:32N 39°07' W 084°48'3 3.5
2015-Jun-22 18:33N 39°09' W 084°44'3 3.2
2015-Jun-22 17:33N 39°06' W 084°41'0 0.0
2015-Jun-22 16:32N 39°06' W 084°41'0 0.0
2015-Jun-22 15:32N 39°06' W 084°41'0 0.0
2015-Jun-22 14:32N 39°06' W 084°41'1 0.7
2015-Jun-22 13:33N 39°06' W 084°40'4 4.0
2015-Jun-22 12:29N 39°05' W 084°35'0 0.2
2015-Jun-22 11:33N 39°05' W 084°35'6 6.1
2015-Jun-22 10:33N 39°07' W 084°28'5 5.1
2015-Jun-22 09:33N 39°03' W 084°24'5 5.0
2015-Jun-22 08:32N 39°01' W 084°19'5 5.2
2015-Jun-22 07:33N 38°56' W 084°16'3 3.2
2015-Jun-22 06:29N 38°53' W 084°14'0 0.1
2015-Jun-22 05:33N 38°53' W 084°14'0 0.0
2015-Jun-22 04:33N 38°53' W 084°14'0 0.0
2015-Jun-22 03:32N 38°53' W 084°14'1 1.3
2015-Jun-22 02:34N 38°52' W 084°14'1 1.2
2015-Jun-22 01:32N 38°50' W 084°14'2 2.4
2015-Jun-22 00:32N 38°53' W 084°14'0 0.2
2015-Jun-21 23:33N 38°53' W 084°14'2 1.6
2015-Jun-21 22:32N 38°51' W 084°14'37 3.3
2015-Jun-21 11:33N 38°41' W 083°29'6 6.3
2015-Jun-21 10:32N 38°39' W 083°21'15 0.4
2015-Jun-19 15:32N 38°38' W 083°41'0 0.1
2015-Jun-19 14:32N 38°38' W 083°41'0 0.0
2015-Jun-19 13:29N 38°38' W 083°41'0 0.1
2015-Jun-19 12:33N 38°38' W 083°41'0 0.1
2015-Jun-19 11:33N 38°38' W 083°41'0 0.2
2015-Jun-19 10:28N 38°38' W 083°41'0 0.2
2015-Jun-19 09:32N 38°38' W 083°41'0 0.0
2015-Jun-19 08:33N 38°38' W 083°41'2 1.7
2015-Jun-19 07:33N 38°39' W 083°43'4 3.1
2015-Jun-19 06:18N 38°41' W 083°47'2 3.2
2015-Jun-19 05:33N 38°42' W 083°49'3 3.4
2015-Jun-19 04:33N 38°45' W 083°52'4 3.7
2015-Jun-19 03:33N 38°47' W 083°56'4 3.7
2015-Jun-19 02:32N 38°47' W 084°01'3 3.5
2015-Jun-19 01:33N 38°46' W 084°05'4 3.6
2015-Jun-19 00:31N 38°48' W 084°10'2 1.6
2015-Jun-18 23:33N 38°48' W 084°12'3 3.0
2015-Jun-18 22:31N 38°50' W 084°14'3 3.1
2015-Jun-18 21:33N 38°53' W 084°14'3 3.5
2015-Jun-18 20:33N 38°56' W 084°17'3 3.4
2015-Jun-18 19:33N 38°59' W 084°18'3 3.3
2015-Jun-18 18:33N 39°02' W 084°21'4 3.5
2015-Jun-18 17:33N 39°03' W 084°25'3 3.3
2015-Jun-18 16:33N 39°06' W 084°26'2 2.4
2015-Jun-18 15:33N 39°06' W 084°29'4 3.7
2015-Jun-18 14:33N 39°05' W 084°34'1 1.0
2015-Jun-18 13:33N 39°05' W 084°35'1 1.3
2015-Jun-18 12:32N 39°04' W 084°37'2 2.0
2015-Jun-18 11:33N 39°05' W 084°39'0 0.0
2015-Jun-18 10:32N 39°05' W 084°39'0 0.0
2015-Jun-18 09:32N 39°05' W 084°39'2 1.9
2015-Jun-18 08:33N 39°06' W 084°41'3 2.7
2015-Jun-18 07:32N 39°08' W 084°43'2 2.3
2015-Jun-18 06:33N 39°08' W 084°46'2 1.6
2015-Jun-18 05:32N 39°07' W 084°48'10 2.0
2015-Jun-18 00:26N 38°57' W 084°51'  
Track history (hours):
 
Tides and Currents Weather Stations Pressure Air Temp Water Temp Dewpoint Dewpoint Depression Visibility Wind Speed Wind Dir Waves Ship Positions

Larry Drummond

Owner: INGRAM BARGE COMPANY, NASHVILLE, TN. More information available from US FCC via Universal Licensing System and Coast Guard Vessel Documentation Center.

Last reported at 2015-Jun-22 19:32 UTC. Time now 2015-Jun-30 14:30 UTC.
Position N 39°07' W 084°48'.

Length 70 m; draft 9 m.

Type: Towing. MMSI: 367522210.

Date/timePositionNaut miles runAvg speedWind from/ knotsBaromVisibWave heightAir tempDewpointWater temp
2015-Jun-22 19:32N 39°07' W 084°48'3 3.5
2015-Jun-22 18:33N 39°09' W 084°44'3 3.2
2015-Jun-22 17:33N 39°06' W 084°41'0 0.0
2015-Jun-22 16:32N 39°06' W 084°41'0 0.0
2015-Jun-22 15:32N 39°06' W 084°41'0 0.0
2015-Jun-22 14:32N 39°06' W 084°41'1 0.7
2015-Jun-22 13:33N 39°06' W 084°40'4 4.0
2015-Jun-22 12:29N 39°05' W 084°35'0 0.2
2015-Jun-22 11:33N 39°05' W 084°35'6 6.1
2015-Jun-22 10:33N 39°07' W 084°28'5 5.1
2015-Jun-22 09:33N 39°03' W 084°24'5 5.0
2015-Jun-22 08:32N 39°01' W 084°19'5 5.2
2015-Jun-22 07:33N 38°56' W 084°16'3 3.2
2015-Jun-22 06:29N 38°53' W 084°14'0 0.1
2015-Jun-22 05:33N 38°53' W 084°14'0 0.0
2015-Jun-22 04:33N 38°53' W 084°14'0 0.0
2015-Jun-22 03:32N 38°53' W 084°14'1 1.3
2015-Jun-22 02:34N 38°52' W 084°14'1 1.2
2015-Jun-22 01:32N 38°50' W 084°14'2 2.4
2015-Jun-22 00:32N 38°53' W 084°14'0 0.2
2015-Jun-21 23:33N 38°53' W 084°14'2 1.6
2015-Jun-21 22:32N 38°51' W 084°14'37 3.3
2015-Jun-21 11:33N 38°41' W 083°29'6 6.3
2015-Jun-21 10:32N 38°39' W 083°21'15 0.4
2015-Jun-19 15:32N 38°38' W 083°41'0 0.1
2015-Jun-19 14:32N 38°38' W 083°41'0 0.0
2015-Jun-19 13:29N 38°38' W 083°41'0 0.1
2015-Jun-19 12:33N 38°38' W 083°41'0 0.1
2015-Jun-19 11:33N 38°38' W 083°41'0 0.2
2015-Jun-19 10:28N 38°38' W 083°41'0 0.2
2015-Jun-19 09:32N 38°38' W 083°41'0 0.0
2015-Jun-19 08:33N 38°38' W 083°41'2 1.7
2015-Jun-19 07:33N 38°39' W 083°43'4 3.1
2015-Jun-19 06:18N 38°41' W 083°47'2 3.2
2015-Jun-19 05:33N 38°42' W 083°49'3 3.4
2015-Jun-19 04:33N 38°45' W 083°52'4 3.7
2015-Jun-19 03:33N 38°47' W 083°56'4 3.7
2015-Jun-19 02:32N 38°47' W 084°01'3 3.5
2015-Jun-19 01:33N 38°46' W 084°05'4 3.6
2015-Jun-19 00:31N 38°48' W 084°10'2 1.6
2015-Jun-18 23:33N 38°48' W 084°12'3 3.0
2015-Jun-18 22:31N 38°50' W 084°14'3 3.1
2015-Jun-18 21:33N 38°53' W 084°14'3 3.5
2015-Jun-18 20:33N 38°56' W 084°17'3 3.4
2015-Jun-18 19:33N 38°59' W 084°18'3 3.3
2015-Jun-18 18:33N 39°02' W 084°21'4 3.5
2015-Jun-18 17:33N 39°03' W 084°25'3 3.3
2015-Jun-18 16:33N 39°06' W 084°26'2 2.4
2015-Jun-18 15:33N 39°06' W 084°29'4 3.7
2015-Jun-18 14:33N 39°05' W 084°34'1 1.0
2015-Jun-18 13:33N 39°05' W 084°35'1 1.3
2015-Jun-18 12:32N 39°04' W 084°37'2 2.0
2015-Jun-18 11:33N 39°05' W 084°39'0 0.0
2015-Jun-18 10:32N 39°05' W 084°39'0 0.0
2015-Jun-18 09:32N 39°05' W 084°39'2 1.9
2015-Jun-18 08:33N 39°06' W 084°41'3 2.7
2015-Jun-18 07:32N 39°08' W 084°43'2 2.3
2015-Jun-18 06:33N 39°08' W 084°46'2 1.6
2015-Jun-18 05:32N 39°07' W 084°48'10 2.0
2015-Jun-18 00:26N 38°57' W 084°51'  

Dump ship's entire track history